aviador You're here:

KSMX Decoded Metar

SANTA MARIA in CA, USA
Report Time2017-08-24 00:51:00
UTC Time2017-08-24 01:10:53
Flight Rules mvfr MVFR
Wind310° at 11 kt
W.Decomp.*RWY 30: 11.0 kt HW 0.8 kt LCW
RWY 02: 1.1 kt HW 10.9 kt LCW
W.Rank310° ranks 2
Current wind is above 310° avg. (9.1)
Visibility8047 m
Phenomena:Haze
Clouds:Broken 012 Hf
Expected CloudBase > 1,600 ft AGL from Temp-Dew spread
Ceiling1,200 ft
Temp18°C (ISA +3)
Dew Point14°C (78% RH)
AAT15.3°C
QNH1014 hPa
Density Alt833 ft
Elevation243 ft
Report Wrong Elevation
Raw Report
METAR KSMX 240051Z 31011KT 5SM HZ BKN012 18/14 A2994 RMK AO2 SLP140
T01830144 $=

Extra information for KSMX:More info

Metar Taf Metar & Taf Last 4 Metars F.Rules Stats Wind Profile Meteogram Temp Stats Airport Information Weather charts Add Link Nearby VenuesMetar ALERT Operation Metar Decoded Social comments

AIRNAV info for KSMX